Time;durP1;ratioP1;P1;durP2;ratioP2;P2;SDS_P1;SDS_P2;PMS_P1;PMS_P2;Temp;Humidity;BMP_temperature;BMP_pressure;BME280_temperature;BME280_humidity;BME280_pressure;Samples;Min_cycle;Max_cycle;Signal;HPM_P1;HPM_P2
2022/06/12 00:00:44;;;;;;;7.82;4.70;;;;;;;13.68;71.58;94544.72;4909858;29;20044;-58
2022/06/12 00:03:14;;;;;;;9.33;4.73;;;;;;;13.64;71.98;94546.75;4897095;29;20048;-59
2022/06/12 00:05:45;;;;;;;6.28;4.70;;;;;;;13.55;71.86;94548.09;4897098;29;20056;-59
2022/06/12 00:08:12;;;;;;;6.85;4.65;;;;;;;13.53;71.96;94539.44;4913723;29;20058;-58
2022/06/12 00:10:42;;;;;;;7.05;4.65;;;;;;;13.55;71.90;94542.56;4902676;29;20050;-59
2022/06/12 00:13:11;;;;;;;6.80;4.50;;;;;;;13.56;72.36;94543.34;4915343;29;20052;-59
2022/06/12 00:15:38;;;;;;;8.10;4.50;;;;;;;13.50;71.71;94548.56;4915574;29;20040;-59
2022/06/12 00:18:05;;;;;;;7.22;4.70;;;;;;;13.45;72.49;94549.03;4907414;29;20488;-59
2022/06/12 00:20:33;;;;;;;7.13;5.30;;;;;;;13.31;73.14;94547.28;4897080;29;20119;-59
2022/06/12 00:23:00;;;;;;;26.30;16.95;;;;;;;13.12;74.09;94548.75;4914422;29;20136;-59
2022/06/12 00:25:30;;;;;;;10.00;6.22;;;;;;;13.05;74.43;94548.06;4915509;29;20051;-58
2022/06/12 00:27:57;;;;;;;9.03;5.70;;;;;;;13.05;74.55;94548.84;4915060;29;20060;-58
2022/06/12 00:30:25;;;;;;;7.75;5.22;;;;;;;13.02;74.44;94541.41;4915614;29;20361;-58
2022/06/12 00:32:54;;;;;;;7.38;4.95;;;;;;;13.06;73.89;94541.34;4912196;29;20064;-58
2022/06/12 00:35:29;;;;;;;7.93;5.00;;;;;;;13.12;73.86;94542.44;4907120;29;20056;-59
2022/06/12 00:37:56;;;;;;;7.95;4.80;;;;;;;13.08;73.22;94544.47;4909688;29;20052;-58
2022/06/12 00:40:24;;;;;;;6.37;4.60;;;;;;;13.06;73.25;94549.59;4915517;29;20066;-59
2022/06/12 00:42:55;;;;;;;6.65;4.60;;;;;;;13.02;73.55;94546.94;4914972;29;20036;-58
2022/06/12 00:45:32;;;;;;;6.78;4.40;;;;;;;13.00;73.38;94546.56;4915322;29;20427;-59
2022/06/12 00:48:02;;;;;;;6.40;4.53;;;;;;;12.97;73.38;94545.41;4913366;29;20044;-59
2022/06/12 00:50:30;;;;;;;199.60;106.63;;;;;;;12.96;73.73;94549.34;4915209;29;20123;-59
2022/06/12 00:52:58;;;;;;;13.60;7.73;;;;;;;12.97;73.75;94547.38;4914974;29;20052;-58
2022/06/12 00:55:48;;;;;;;21.90;13.57;;;;;;;12.95;73.50;94555.28;4886779;29;20053;-59
2022/06/12 00:58:20;;;;;;;12.25;8.00;;;;;;;12.94;73.73;94548.22;4901115;29;20329;-58
2022/06/12 01:00:47;;;;;;;8.27;5.72;;;;;;;12.91;73.86;94544.31;4908199;29;20082;-59
2022/06/12 01:03:14;;;;;;;7.95;5.15;;;;;;;12.89;74.42;94546.69;4895239;29;20809;-58
2022/06/12 01:08:29;;;;;;;6.82;4.93;;;;;;;12.78;74.35;94546.06;4912877;29;21502;-59
2022/06/12 01:10:59;;;;;;;7.40;5.00;;;;;;;12.73;74.37;94547.31;4917378;29;20458;-58
2022/06/12 01:13:30;;;;;;;7.60;5.38;;;;;;;12.71;74.40;94544.19;4933865;29;20039;-59
2022/06/12 01:16:04;;;;;;;338.90;191.52;;;;;;;12.68;74.73;94536.75;4933306;29;20070;-58
2022/06/12 01:18:37;;;;;;;54.77;31.43;;;;;;;12.67;74.80;94540.69;4927365;29;20063;-59
2022/06/12 01:21:22;;;;;;;12.45;8.15;;;;;;;12.67;74.39;94532.44;4927148;29;20054;-59
2022/06/12 01:24:25;;;;;;;20.42;13.32;;;;;;;12.64;74.76;94529.75;4933375;29;20044;-58
2022/06/12 01:27:44;;;;;;;7.72;5.30;;;;;;;12.59;74.80;94526.25;4909825;29;20395;-59
2022/06/12 01:30:28;;;;;;;8.15;6.07;;;;;;;12.53;75.27;94521.63;4932157;28;20045;-58
2022/06/12 01:33:33;;;;;;;7.57;5.30;;;;;;;12.50;75.32;94522.47;4949485;29;20089;-58
2022/06/12 01:36:15;;;;;;;7.13;5.20;;;;;;;12.48;75.13;94525.63;4899711;29;20044;-58
2022/06/12 01:39:07;;;;;;;10.30;5.38;;;;;;;12.43;74.95;94526.06;4929581;29;20047;-59
2022/06/12 01:42:11;;;;;;;7.18;5.07;;;;;;;12.42;75.89;94527.25;4932380;29;20055;-59
2022/06/12 01:44:51;;;;;;;8.38;5.80;;;;;;;12.30;75.99;94527.81;4932483;29;21405;-59
2022/06/12 01:48:15;;;;;;;7.73;5.67;;;;;;;12.19;76.71;94514.16;4920845;29;20419;-59
2022/06/12 01:50:41;;;;;;;8.75;5.80;;;;;;;12.21;76.62;94511.78;4873339;29;21650;-59
2022/06/12 01:53:11;;;;;;;8.50;5.47;;;;;;;12.22;76.57;94515.34;4873476;29;20059;-59
2022/06/12 01:55:37;;;;;;;7.57;5.60;;;;;;;12.15;76.31;94514.22;4904289;29;20048;-59
2022/06/12 01:58:11;;;;;;;9.00;6.10;;;;;;;12.08;76.90;94503.28;4913520;29;20495;-59
2022/06/12 02:00:45;;;;;;;9.57;6.43;;;;;;;11.94;78.12;94517.22;4905950;29;20045;-59
2022/06/12 02:03:15;;;;;;;9.85;6.68;;;;;;;11.91;78.12;94513.31;4894623;29;20063;-59
2022/06/12 02:05:55;;;;;;;9.38;6.63;;;;;;;11.77;78.76;94518.91;4898480;29;20045;-59
2022/06/12 02:08:54;;;;;;;9.23;6.80;;;;;;;11.69;79.83;94520.16;4928832;29;20740;-58
2022/06/12 02:14:21;;;;;;;9.73;6.30;;;;;;;11.64;79.84;94515.91;4912927;29;20426;-59
2022/06/12 02:16:53;;;;;;;8.95;6.20;;;;;;;11.68;79.75;94510.38;4913780;29;20050;-59
2022/06/12 02:19:25;;;;;;;8.63;5.32;;;;;;;11.73;79.15;94516.22;4897396;29;21573;-59
2022/06/12 02:22:02;;;;;;;7.25;5.35;;;;;;;11.76;78.80;94517.38;4901604;29;20056;-58
2022/06/12 02:24:43;;;;;;;8.57;5.65;;;;;;;11.74;78.56;94515.00;4913149;29;20055;-58
2022/06/12 02:27:16;;;;;;;8.20;5.40;;;;;;;11.77;78.33;94518.91;4901048;29;20294;-58
2022/06/12 02:29:49;;;;;;;7.78;5.50;;;;;;;11.73;78.39;94513.47;4913520;29;20352;-59
2022/06/12 02:32:21;;;;;;;7.15;5.18;;;;;;;11.74;78.48;94519.75;4920369;29;20675;-58
2022/06/12 02:34:57;;;;;;;7.35;5.40;;;;;;;11.74;78.17;94522.50;4905945;29;20062;-59
2022/06/12 02:37:30;;;;;;;8.55;5.88;;;;;;;11.71;78.47;94515.84;4922250;29;20052;-58
2022/06/12 02:40:04;;;;;;;9.43;6.00;;;;;;;11.56;79.69;94512.44;4932016;29;20102;-58
2022/06/12 02:42:37;;;;;;;8.55;6.38;;;;;;;11.44;80.06;94520.41;4923254;29;20058;-59
2022/06/12 02:45:09;;;;;;;10.18;6.95;;;;;;;11.38;80.50;94504.34;4927811;29;20066;-58
2022/06/12 02:47:39;;;;;;;8.43;6.28;;;;;;;11.45;79.95;94514.53;4932409;29;20048;-59
2022/06/12 02:50:09;;;;;;;7.75;5.97;;;;;;;11.47;79.86;94514.09;4931624;29;20410;-59
2022/06/12 02:52:56;;;;;;;8.57;5.97;;;;;;;11.51;80.12;94510.16;4930918;29;20050;-59
2022/06/12 02:55:47;;;;;;;9.32;5.78;;;;;;;11.47;79.51;94508.59;4931222;29;20380;-58
2022/06/12 02:58:26;;;;;;;9.25;6.65;;;;;;;11.40;80.02;94517.69;4911525;29;20048;-58
2022/06/12 03:00:58;;;;;;;9.10;5.82;;;;;;;11.37;80.01;94516.56;4912704;29;20062;-57
2022/06/12 03:03:55;;;;;;;8.18;5.97;;;;;;;11.40;79.84;94512.19;4913349;29;20384;-58
2022/06/12 03:06:26;;;;;;;8.63;6.10;;;;;;;11.28;80.32;94512.69;4912138;29;21075;-59
2022/06/12 03:08:58;;;;;;;9.43;5.90;;;;;;;11.26;80.48;94515.06;4910415;29;20048;-58
2022/06/12 03:11:37;;;;;;;8.60;6.40;;;;;;;11.18;81.16;94512.38;4902782;29;20054;-59
2022/06/12 03:14:10;;;;;;;9.05;6.55;;;;;;;11.14;81.30;94510.84;4912582;29;20314;-58
2022/06/12 03:16:41;;;;;;;9.40;6.43;;;;;;;11.16;81.06;94509.25;4913414;29;20052;-59
2022/06/12 03:19:23;;;;;;;9.27;6.10;;;;;;;11.22;80.65;94509.59;4912542;29;20456;-59
2022/06/12 03:22:06;;;;;;;8.50;6.20;;;;;;;11.22;81.31;94506.84;4912742;29;20052;-57
2022/06/12 03:24:53;;;;;;;8.32;6.28;;;;;;;11.26;80.81;94513.09;4912694;29;20058;-59
2022/06/12 03:27:41;;;;;;;8.73;6.13;;;;;;;11.22;80.50;94514.31;4912159;29;20610;-58
2022/06/12 03:30:13;;;;;;;8.32;6.50;;;;;;;11.02;81.32;94517.59;4899699;29;20067;-59
2022/06/12 03:33:18;;;;;;;9.93;6.77;;;;;;;10.89;82.28;94520.06;4915341;29;20056;-58
2022/06/12 03:36:11;;;;;;;8.55;5.93;;;;;;;10.90;82.27;94518.84;4899138;29;20049;-59
2022/06/12 03:38:45;;;;;;;9.05;6.68;;;;;;;10.89;82.52;94522.03;4902344;29;20780;-58
2022/06/12 03:41:38;;;;;;;8.93;6.25;;;;;;;10.90;82.75;94513.38;4898527;29;20075;-59
2022/06/12 03:44:38;;;;;;;9.13;6.70;;;;;;;10.84;82.59;94523.22;4904503;29;20044;-59
2022/06/12 03:47:29;;;;;;;8.93;6.23;;;;;;;10.96;82.07;94513.72;4918338;29;20052;-58
2022/06/12 03:50:07;;;;;;;8.35;6.10;;;;;;;10.99;81.68;94515.69;4907389;29;20051;-58
2022/06/12 03:52:48;;;;;;;9.80;6.47;;;;;;;11.11;81.37;94514.41;4928314;29;20052;-59
2022/06/12 03:57:50;;;;;;;7.90;6.00;;;;;;;11.15;81.33;94515.16;4908142;29;20500;-58
2022/06/12 03:58:20;;;;;;;8.98;6.00;;;;;;;11.21;80.91;94521.78;4915639;29;20048;-59
2022/06/12 04:00:49;;;;;;;9.20;6.23;;;;;;;11.28;80.66;94521.72;4916085;29;20048;-58
2022/06/12 04:03:30;;;;;;;10.25;6.60;;;;;;;11.31;80.40;94529.16;4922735;29;21676;-59
2022/06/12 04:06:04;;;;;;;8.30;6.55;;;;;;;11.44;79.86;94523.94;4915462;29;20044;-58
2022/06/12 04:08:38;;;;;;;8.80;5.97;;;;;;;11.48;79.69;94515.66;4916144;29;20052;-58
2022/06/12 04:11:10;;;;;;;8.70;5.88;;;;;;;11.56;79.05;94525.41;4901200;29;20059;-58
2022/06/12 04:13:38;;;;;;;9.23;6.43;;;;;;;11.56;78.95;94526.19;4915791;29;20060;-58
2022/06/12 04:16:27;;;;;;;8.77;6.28;;;;;;;11.35;80.20;94526.41;4915356;29;20044;-58
2022/06/12 04:18:54;;;;;;;8.63;6.20;;;;;;;11.42;79.84;94520.81;4915217;29;20071;-58
2022/06/12 04:21:44;;;;;;;8.98;6.57;;;;;;;11.39;80.06;94524.41;4915365;29;20052;-58
2022/06/12 04:24:17;;;;;;;8.25;6.40;;;;;;;11.40;80.32;94514.94;4915138;29;20064;-58
2022/06/12 04:26:48;;;;;;;9.73;6.67;;;;;;;12.13;78.22;94526.81;4915709;29;20062;-59
2022/06/12 04:29:15;;;;;;;7.63;5.97;;;;;;;14.52;69.15;94512.38;4915042;29;20048;-59
2022/06/12 04:31:46;;;;;;;7.32;5.65;;;;;;;16.34;62.57;94518.31;4914428;29;20517;-59
2022/06/12 04:34:29;;;;;;;6.32;5.15;;;;;;;17.02;58.69;94509.25;4903314;29;20407;-58
2022/06/12 04:36:59;;;;;;;7.03;5.20;;;;;;;17.49;57.65;94514.13;4894921;29;20048;-57
2022/06/12 04:39:30;;;;;;;6.87;5.60;;;;;;;17.20;57.63;94514.25;4900030;29;20044;-58
2022/06/12 04:41:58;;;;;;;6.47;5.40;;;;;;;15.86;61.31;94517.22;4895935;29;20052;-58
2022/06/12 04:44:25;;;;;;;7.53;5.13;;;;;;;15.45;62.49;94515.84;4903913;29;20111;-58
2022/06/12 04:46:55;;;;;;;8.13;5.10;;;;;;;14.74;65.17;94516.28;4910747;29;20051;-57
2022/06/12 04:49:25;;;;;;;6.47;5.38;;;;;;;14.21;67.32;94517.38;4914886;29;20040;-58
2022/06/12 04:51:54;;;;;;;7.43;5.47;;;;;;;14.05;68.18;94518.84;4913678;29;20056;-57
2022/06/12 04:54:22;;;;;;;7.90;5.60;;;;;;;13.63;70.00;94514.88;4903319;29;20052;-58
2022/06/12 04:56:49;;;;;;;7.63;5.80;;;;;;;13.23;72.20;94520.22;4915237;29;20422;-58
2022/06/12 04:59:18;;;;;;;7.63;5.88;;;;;;;13.10;73.15;94526.31;4914239;29;20763;-58
2022/06/12 05:01:47;;;;;;;7.78;5.85;;;;;;;13.15;73.11;94525.06;4915126;29;20393;-58
2022/06/12 05:04:14;;;;;;;7.47;5.97;;;;;;;12.98;73.79;94533.19;4914649;29;20052;-58
2022/06/12 05:06:43;;;;;;;7.95;5.82;;;;;;;12.91;74.30;94533.28;4915005;29;20048;-58
2022/06/12 05:09:12;;;;;;;8.05;5.97;;;;;;;12.87;74.38;94523.53;4912038;29;20053;-58
2022/06/12 05:11:40;;;;;;;8.18;6.00;;;;;;;13.01;74.33;94530.81;4919056;29;20075;-58
2022/06/12 05:14:07;;;;;;;39.67;24.90;;;;;;;13.29;73.64;94535.91;4931893;29;20051;-57
2022/06/12 05:16:39;;;;;;;13.03;9.37;;;;;;;14.80;68.89;94524.06;4933495;29;20044;-57
2022/06/12 05:19:10;;;;;;;7.55;5.90;;;;;;;18.50;58.08;94511.50;4933210;29;20048;-58
2022/06/12 05:21:37;;;;;;;5.97;5.10;;;;;;;21.50;50.43;94516.13;4933890;29;20490;-58
2022/06/12 05:24:04;;;;;;;5.68;4.30;;;;;;;23.17;45.32;94508.03;4932990;29;20053;-58
2022/06/12 05:26:33;;;;;;;6.55;4.75;;;;;;;23.73;43.17;94502.53;4933293;29;20048;-59
2022/06/12 05:29:04;;;;;;;5.60;4.50;;;;;;;24.49;40.44;94499.69;4933014;29;20511;-59
2022/06/12 05:31:31;;;;;;;4.97;4.20;;;;;;;25.37;39.31;94501.59;4933635;29;20098;-59
2022/06/12 05:33:58;;;;;;;5.22;4.43;;;;;;;24.92;39.07;94505.53;4924330;29;20051;-59
2022/06/12 05:36:25;;;;;;;5.80;4.00;;;;;;;24.87;39.49;94502.66;4933232;29;20044;-59
2022/06/12 05:38:52;;;;;;;5.63;4.30;;;;;;;25.64;37.43;94506.66;4932879;29;20106;-59
2022/06/12 05:41:20;;;;;;;5.13;4.13;;;;;;;26.70;35.22;94505.69;4932989;29;20209;-59
2022/06/12 05:43:47;;;;;;;4.88;4.00;;;;;;;26.78;35.59;94494.69;4926773;29;20048;-59
2022/06/12 05:46:16;;;;;;;5.18;4.20;;;;;;;27.79;33.78;94496.00;4926011;29;20483;-59
2022/06/12 05:48:44;;;;;;;4.30;3.90;;;;;;;27.45;33.84;94501.72;4933285;29;20052;-59
2022/06/12 05:51:13;;;;;;;4.75;3.80;;;;;;;27.24;34.28;94509.63;4932739;29;20417;-59
2022/06/12 05:53:41;;;;;;;5.17;3.93;;;;;;;25.50;37.41;94499.91;4932101;29;20043;-59
2022/06/12 05:56:12;;;;;;;4.95;3.88;;;;;;;25.99;37.05;94502.81;4932360;29;20035;-59
2022/06/12 05:58:40;;;;;;;4.97;3.95;;;;;;;27.10;35.48;94505.75;4931932;29;20060;-59
2022/06/12 06:01:11;;;;;;;4.72;3.63;;;;;;;28.26;33.18;94491.31;4932356;29;20058;-59
2022/06/12 06:03:38;;;;;;;4.88;3.92;;;;;;;27.90;33.66;94496.03;4933149;29;20043;-59
2022/06/12 06:06:07;;;;;;;4.33;3.80;;;;;;;30.10;30.65;94485.44;4932430;29;20043;-60
2022/06/12 06:08:34;;;;;;;4.53;3.80;;;;;;;29.20;31.96;94489.84;4931726;29;20521;-60
2022/06/12 06:11:02;;;;;;;3.97;3.33;;;;;;;29.99;30.97;94489.16;4932117;29;20092;-60
2022/06/12 06:13:28;;;;;;;4.00;3.60;;;;;;;30.60;29.72;94501.84;4932805;29;20052;-60
2022/06/12 06:15:55;;;;;;;5.38;3.60;;;;;;;28.61;32.42;94501.19;4932290;29;20047;-59
2022/06/12 06:18:22;;;;;;;5.10;3.40;;;;;;;28.64;32.35;94499.41;4932772;29;20051;-60
2022/06/12 06:20:49;;;;;;;4.55;3.40;;;;;;;30.13;30.38;94493.63;4932817;29;20081;-60
2022/06/12 06:23:15;;;;;;;4.95;3.47;;;;;;;30.58;29.38;94504.44;4932031;29;20647;-59
2022/06/12 06:25:43;;;;;;;4.63;3.38;;;;;;;30.88;28.74;94503.59;4927652;29;20118;-58
2022/06/12 06:28:12;;;;;;;5.07;3.22;;;;;;;32.99;26.19;94500.91;4911886;29;22629;-58
2022/06/12 06:30:40;;;;;;;3.70;3.00;;;;;;;32.11;27.21;94502.19;4913607;29;20047;-58
2022/06/12 06:33:08;;;;;;;3.88;3.00;;;;;;;33.23;26.11;94499.13;4912097;29;20399;-59
2022/06/12 06:35:41;;;;;;;4.15;3.13;;;;;;;31.93;27.34;94501.69;4899925;29;20058;-59
2022/06/12 06:38:09;;;;;;;4.45;3.25;;;;;;;33.22;25.81;94491.91;4913187;29;20060;-59
2022/06/12 06:40:36;;;;;;;4.65;3.30;;;;;;;34.18;24.85;94487.47;4913527;29;20060;-60
2022/06/12 06:43:06;;;;;;;3.53;2.90;;;;;;;34.38;24.09;94496.53;4910597;29;20060;-60
2022/06/12 06:48:20;;;;;;;3.95;2.92;;;;;;;34.47;24.35;94498.88;4930123;29;20054;-60
2022/06/12 06:50:47;;;;;;;3.50;2.63;;;;;;;35.80;22.55;94499.56;4932053;29;20058;-60
2022/06/12 06:53:14;;;;;;;3.10;2.70;;;;;;;35.79;23.35;94492.31;4931343;29;20074;-60
2022/06/12 06:55:42;;;;;;;5.20;2.80;;;;;;;34.97;23.60;94498.75;4932238;29;20044;-60
2022/06/12 06:58:14;;;;;;;4.72;2.78;;;;;;;34.78;23.72;94499.81;4931727;29;20044;-60
2022/06/12 07:00:43;;;;;;;3.55;2.90;;;;;;;35.86;22.74;94499.34;4927818;29;20040;-60
2022/06/12 07:03:11;;;;;;;3.28;2.80;;;;;;;37.28;20.51;94490.88;4923253;29;20052;-60
2022/06/12 07:05:39;;;;;;;3.40;2.75;;;;;;;36.72;20.96;94490.91;4933083;29;20060;-61
2022/06/12 07:08:06;;;;;;;3.80;2.80;;;;;;;35.89;21.98;94496.13;4935331;29;20397;-60
2022/06/12 07:10:35;;;;;;;3.97;2.60;;;;;;;36.52;21.86;94501.25;4936082;29;20073;-60
2022/06/12 07:13:03;;;;;;;4.03;2.63;;;;;;;36.44;21.32;94497.63;4902927;29;20051;-59
2022/06/12 07:15:32;;;;;;;3.55;2.70;;;;;;;37.05;21.29;94490.22;4936032;29;20043;-59
2022/06/12 07:17:59;;;;;;;3.65;2.70;;;;;;;36.51;21.12;94502.56;4934810;29;20055;-59
2022/06/12 07:20:29;;;;;;;4.23;2.50;;;;;;;36.74;21.44;94501.75;4918536;29;20047;-59
2022/06/12 07:22:56;;;;;;;3.63;2.70;;;;;;;36.54;20.72;94500.66;4934480;29;20169;-59
2022/06/12 07:25:24;;;;;;;3.75;2.53;;;;;;;37.60;19.70;94497.97;4922390;29;20048;-59
2022/06/12 07:27:51;;;;;;;3.60;2.20;;;;;;;39.29;17.81;94487.72;4923822;29;20056;-59
2022/06/12 07:30:24;;;;;;;3.00;2.33;;;;;;;39.90;17.39;94485.34;4918396;29;20499;-59
2022/06/12 07:32:51;;;;;;;3.10;2.10;;;;;;;40.85;16.60;94478.91;4932059;29;20052;-58
2022/06/12 07:35:18;;;;;;;3.42;2.30;;;;;;;40.49;16.55;94478.44;4924000;29;20051;-59
2022/06/12 07:37:46;;;;;;;2.95;2.20;;;;;;;41.07;16.39;94474.81;4929144;29;20043;-59
2022/06/12 07:40:22;;;;;;;3.05;2.20;;;;;;;38.81;18.37;94475.88;4934428;29;20116;-59
2022/06/12 07:42:49;;;;;;;3.05;2.20;;;;;;;39.68;17.54;94470.75;4935304;29;20054;-59
2022/06/12 07:45:16;;;;;;;4.17;2.20;;;;;;;40.32;16.76;94479.28;4934133;29;20507;-59
2022/06/12 07:47:43;;;;;;;2.67;2.13;;;;;;;38.75;17.84;94470.41;4935336;29;20043;-59
2022/06/12 07:50:11;;;;;;;3.47;2.10;;;;;;;39.89;16.85;94469.50;4934326;29;20051;-59
2022/06/12 07:52:39;;;;;;;2.83;2.10;;;;;;;40.43;16.04;94475.09;4934796;29;20070;-59
2022/06/12 07:55:09;;;;;;;2.50;1.90;;;;;;;40.65;15.74;94464.50;4934185;29;20047;-59
2022/06/12 07:57:38;;;;;;;2.90;2.07;;;;;;;40.67;15.95;94467.53;4934870;29;20410;-59
2022/06/12 08:00:07;;;;;;;2.70;1.80;;;;;;;40.64;15.84;94462.25;4934504;29;20058;-59
2022/06/12 08:02:34;;;;;;;2.65;2.00;;;;;;;38.93;17.43;94460.41;4934986;29;20096;-59
2022/06/12 08:05:02;;;;;;;2.80;1.85;;;;;;;39.08;17.35;94464.47;4934496;29;20063;-59
2022/06/12 08:07:29;;;;;;;3.38;2.10;;;;;;;39.53;17.14;94450.88;4934980;29;20052;-59
2022/06/12 08:09:56;;;;;;;6.07;5.57;;;;;;;39.64;16.84;94452.41;4920832;29;20044;-59
2022/06/12 08:12:22;;;;;;;3.85;2.50;;;;;;;38.09;17.95;94449.84;4934613;29;20050;-59
2022/06/12 08:14:49;;;;;;;3.03;2.30;;;;;;;34.97;21.75;94453.09;4934862;29;20051;-59
2022/06/12 08:17:16;;;;;;;3.72;2.20;;;;;;;35.11;22.19;94448.78;4921832;29;21631;-59
2022/06/12 08:22:31;;;;;;;2.90;2.20;;;;;;;33.96;21.38;94446.09;4885143;29;20877;-59
2022/06/12 08:24:58;;;;;;;4.40;2.42;;;;;;;32.83;22.47;94443.13;4910656;29;20488;-59
2022/06/12 08:27:25;;;;;;;3.20;2.40;;;;;;;33.57;21.85;94447.88;4905878;29;20055;-59
2022/06/12 08:29:52;;;;;;;3.72;2.60;;;;;;;33.58;22.02;94446.53;4906844;29;20047;-58
2022/06/12 08:32:21;;;;;;;3.30;2.40;;;;;;;34.37;21.34;94455.88;4896501;29;20048;-59
2022/06/12 08:34:53;;;;;;;4.40;2.60;;;;;;;33.23;22.26;94448.69;4910741;29;20051;-59
2022/06/12 08:37:27;;;;;;;3.03;2.47;;;;;;;33.62;22.06;94449.06;4924180;29;21459;-59
2022/06/12 08:39:54;;;;;;;3.00;2.23;;;;;;;34.68;21.39;94453.22;4908162;29;20046;-58
2022/06/12 08:42:36;;;;;;;5.00;2.38;;;;;;;34.13;21.58;94461.97;4934329;29;20057;-59
2022/06/12 08:45:11;;;;;;;3.28;2.40;;;;;;;34.26;21.00;94456.19;4933698;29;20434;-58
2022/06/12 08:47:58;;;;;;;3.30;2.20;;;;;;;34.03;21.71;94448.25;4934323;29;20055;-59
2022/06/12 08:50:35;;;;;;;3.72;2.13;;;;;;;34.43;21.66;94450.03;4914507;29;20642;-59
2022/06/12 08:53:16;;;;;;;3.70;2.40;;;;;;;33.34;22.34;94452.59;4913876;29;20052;-59
2022/06/12 08:55:58;;;;;;;3.63;2.40;;;;;;;33.20;23.62;94441.28;4908019;29;20056;-59
2022/06/12 08:58:36;;;;;;;5.60;2.33;;;;;;;33.76;22.13;94441.97;4910401;29;20747;-59
2022/06/12 09:01:03;;;;;;;3.73;2.50;;;;;;;33.91;21.19;94443.41;4914765;29;20044;-58
2022/06/12 09:03:35;;;;;;;3.97;2.40;;;;;;;35.67;20.14;94436.91;4915015;29;20062;-58
2022/06/12 09:06:25;;;;;;;5.03;2.47;;;;;;;33.55;22.35;94439.13;4914181;29;20036;-58
2022/06/12 09:09:17;;;;;;;4.57;2.55;;;;;;;34.40;21.20;94429.09;4914274;29;20051;-58
2022/06/12 09:11:49;;;;;;;6.05;2.55;;;;;;;33.59;22.43;94435.94;4915004;29;20055;-58
2022/06/12 09:14:40;;;;;;;3.40;2.03;;;;;;;36.83;18.93;94429.66;4914258;29;20044;-58
2022/06/12 09:17:32;;;;;;;3.42;2.20;;;;;;;34.42;21.66;94417.91;4914422;29;20058;-58
2022/06/12 09:20:09;;;;;;;3.92;2.33;;;;;;;34.34;21.53;94417.09;4914096;29;20048;-58
2022/06/12 09:22:59;;;;;;;5.72;2.35;;;;;;;35.48;20.01;94426.63;4895416;29;20056;-59
2022/06/12 09:26:24;;;;;;;3.65;2.25;;;;;;;34.83;20.94;94417.53;4904005;29;20131;-60
2022/06/12 09:28:53;;;;;;;4.43;2.47;;;;;;;31.91;24.13;94410.63;4901868;29;20074;-59
2022/06/12 09:31:38;;;;;;;3.55;2.40;;;;;;;33.17;23.06;94419.63;4912574;29;20430;-60
2022/06/12 09:34:33;;;;;;;3.13;2.45;;;;;;;32.66;23.38;94408.66;4920450;29;20044;-59
2022/06/12 09:40:32;;;;;;;3.42;2.40;;;;;;;37.53;19.19;94401.38;4907615;29;20106;-60
2022/06/12 09:43:26;;;;;;;3.37;2.57;;;;;;;36.81;19.26;94400.13;4932909;29;20052;-60
2022/06/12 09:46:02;;;;;;;3.10;2.30;;;;;;;39.11;17.00;94398.03;4932909;29;20058;-59
2022/06/12 09:48:53;;;;;;;3.40;2.55;;;;;;;35.44;20.24;94399.75;4932909;29;20055;-60
2022/06/12 09:51:51;;;;;;;3.20;2.40;;;;;;;36.21;19.49;94400.50;4913544;29;20081;-60
2022/06/12 09:54:44;;;;;;;3.20;2.40;;;;;;;36.48;19.21;94388.59;4913097;29;21519;-60
2022/06/12 09:57:27;;;;;;;3.50;2.10;;;;;;;34.68;20.98;94392.59;4888473;29;20484;-59
2022/06/12 10:00:08;;;;;;;3.20;2.20;;;;;;;35.36;20.62;94388.38;4913349;29;20427;-59
2022/06/12 10:02:55;;;;;;;3.10;2.42;;;;;;;33.93;23.32;94387.44;4914090;29;20058;-60
2022/06/12 10:05:40;;;;;;;3.58;2.60;;;;;;;33.22;23.10;94393.13;4919889;29;21540;-60
2022/06/12 10:08:41;;;;;;;4.40;2.70;;;;;;;32.27;23.65;94381.06;4913246;29;20087;-60
2022/06/12 10:11:35;;;;;;;4.73;2.70;;;;;;;32.74;23.35;94383.13;4925797;29;20050;-60
2022/06/12 10:14:15;;;;;;;3.92;2.53;;;;;;;35.44;21.19;94376.94;4931759;29;20048;-59
2022/06/12 10:16:53;;;;;;;4.28;2.30;;;;;;;34.92;21.26;94374.97;4907723;29;20047;-60
2022/06/12 10:19:38;;;;;;;4.13;2.70;;;;;;;35.30;21.33;94371.44;4931348;29;21573;-60
2022/06/12 10:22:35;;;;;;;4.32;2.83;;;;;;;34.65;21.27;94376.56;4931904;29;20047;-60
2022/06/12 10:25:04;;;;;;;4.30;2.40;;;;;;;31.88;24.19;94374.09;4931835;29;20051;-59
2022/06/12 10:27:44;;;;;;;4.10;2.60;;;;;;;31.33;25.60;94363.97;4931402;29;20530;-59
2022/06/12 10:30:38;;;;;;;4.13;2.70;;;;;;;32.04;24.42;94355.97;4921821;29;20374;-59
2022/06/12 10:33:22;;;;;;;3.83;2.40;;;;;;;33.62;22.72;94355.16;4915003;29;20520;-59
2022/06/12 10:35:59;;;;;;;4.10;2.60;;;;;;;33.37;22.94;94354.75;4928413;29;20095;-59
2022/06/12 10:38:36;;;;;;;3.53;2.60;;;;;;;33.41;22.84;94358.75;4918046;29;20052;-59
2022/06/12 10:41:21;;;;;;;3.85;2.60;;;;;;;33.23;22.98;94354.81;4931684;29;20051;-59
2022/06/12 10:43:50;;;;;;;3.95;2.60;;;;;;;32.14;23.63;94365.56;4932526;29;20127;-59
2022/06/12 10:46:23;;;;;;;3.35;2.60;;;;;;;31.84;24.64;94352.47;4931565;29;20422;-59
2022/06/12 10:48:55;;;;;;;4.65;2.80;;;;;;;31.76;24.67;94348.75;4932005;29;20048;-59
2022/06/12 10:51:30;;;;;;;3.20;2.57;;;;;;;31.39;24.69;94350.47;4931270;29;20082;-59
2022/06/12 10:53:59;;;;;;;4.53;2.80;;;;;;;31.71;24.67;94352.44;4918066;29;20063;-59
2022/06/12 10:56:53;;;;;;;5.53;2.90;;;;;;;27.59;30.07;94350.47;4921333;29;20052;-59
2022/06/12 10:59:38;;;;;;;4.30;3.20;;;;;;;28.05;29.43;94349.00;4907463;29;21696;-58
2022/06/12 11:02:36;;;;;;;5.43;2.97;;;;;;;28.46;29.74;94342.63;4917619;29;20052;-59
2022/06/12 11:05:20;;;;;;;4.50;2.80;;;;;;;28.60;29.20;94343.59;4923317;29;20048;-59
2022/06/12 11:08:03;;;;;;;5.88;2.88;;;;;;;27.71;30.46;94343.53;4929495;29;20079;-59
2022/06/12 11:10:56;;;;;;;4.25;2.92;;;;;;;28.08;29.62;94337.47;4930921;29;21684;-59
2022/06/12 11:13:29;;;;;;;4.13;2.60;;;;;;;28.79;27.76;94338.03;4924238;29;20193;-59
2022/06/12 11:16:03;;;;;;;5.10;2.70;;;;;;;28.28;28.30;94329.91;4925523;29;20060;-59
2022/06/12 11:18:41;;;;;;;4.30;2.80;;;;;;;28.23;28.98;94331.50;4932058;29;20058;-59
2022/06/12 11:21:11;;;;;;;5.00;2.83;;;;;;;28.13;29.86;94321.81;4931368;29;20070;-59
2022/06/12 11:24:06;;;;;;;3.60;2.70;;;;;;;27.69;29.30;94321.47;4931761;29;20054;-59
2022/06/12 11:26:52;;;;;;;4.70;2.85;;;;;;;27.70;30.25;94311.72;4930875;29;20125;-59
2022/06/12 11:29:18;;;;;;;4.43;2.80;;;;;;;28.33;28.68;94305.75;4930228;29;20043;-59
2022/06/12 11:32:36;;;;;;;4.23;2.83;;;;;;;27.59;29.79;94308.97;4918625;29;20044;-58
2022/06/12 11:35:15;;;;;;;3.80;2.80;;;;;;;28.22;30.13;94309.44;4868644;29;20068;-59
2022/06/12 11:38:12;;;;;;;3.67;2.83;;;;;;;27.91;29.25;94296.53;4930888;29;20058;-58
2022/06/12 11:40:49;;;;;;;5.97;2.90;;;;;;;27.18;30.36;94297.50;4931002;29;20091;-58
2022/06/12 11:43:30;;;;;;;3.70;2.80;;;;;;;27.35;30.34;94297.50;4931079;29;20652;-58
2022/06/12 11:46:21;;;;;;;4.87;3.00;;;;;;;27.24;30.40;94295.47;4931220;29;20047;-58
2022/06/12 11:49:15;;;;;;;4.30;2.85;;;;;;;27.37;31.13;94280.84;4915214;29;20051;-58
2022/06/12 11:52:19;;;;;;;4.50;2.90;;;;;;;27.95;31.04;94285.72;4913098;29;21172;-58
2022/06/12 11:55:17;;;;;;;3.92;2.92;;;;;;;27.61;30.71;94283.06;4915308;29;20044;-58
2022/06/12 11:58:10;;;;;;;3.88;2.90;;;;;;;27.96;29.77;94284.44;4930007;29;21479;-58
2022/06/12 12:01:00;;;;;;;5.60;3.00;;;;;;;27.85;30.03;94271.91;4915293;29;20589;-58
2022/06/12 12:03:39;;;;;;;4.13;2.97;;;;;;;28.18;30.79;94269.44;4915273;29;20579;-58
2022/06/12 12:06:43;;;;;;;5.65;3.55;;;;;;;28.54;30.80;94275.09;4902028;29;20044;-59
2022/06/12 12:09:37;;;;;;;4.32;2.95;;;;;;;28.72;29.11;94262.38;4915348;29;20044;-57
2022/06/12 12:12:09;;;;;;;3.90;3.10;;;;;;;28.17;31.29;94271.50;4915710;29;20517;-58
2022/06/12 12:14:43;;;;;;;5.27;3.20;;;;;;;28.94;30.89;94264.97;4914718;29;20044;-58
2022/06/12 12:17:18;;;;;;;3.67;3.00;;;;;;;29.28;28.73;94256.19;4899155;29;20415;-58
2022/06/12 12:19:53;;;;;;;4.25;3.22;;;;;;;29.13;28.57;94259.41;4915712;29;20052;-59
2022/06/12 12:22:38;;;;;;;3.95;3.08;;;;;;;29.21;28.17;94262.41;4915127;29;21004;-58
2022/06/12 12:25:20;;;;;;;3.83;2.95;;;;;;;28.93;28.51;94254.19;4915389;29;20103;-58
2022/06/12 12:27:52;;;;;;;4.30;3.00;;;;;;;28.57;28.82;94259.91;4915892;29;20118;-58